Marathon, Texas
Current Conditions -  °F | °C
As of 11:15 PM on Saturday 25 Oct 2014 (Local Time) from KE38 Reporting Station
Clear Clear  
Wind Chill: 62°   Ceiling: Unl
Heat Index: 62°   Visibility: 10mi
Dew Point: 47°   Wind: 5mph
Humidity: 58%   Direction: 170°S
Pressure: 30.27"   Gusts: NA
Location:  30.21°N, 103.25°W
Report Text: KE38 260415Z AUTO 17004KT 10SM CLR 17/08 A3027 RMK AO2 T01660084
Loading
Personal Weather Stations






























Interactive Weather Map
Tropical Storm Tracking
New forecast layout! Learn more

10-Day Weather Forecast

Advertisements
Track Severe Weather on mobile